createdAt,value
2022-10-09T00:00:18.669Z,4.87
2022-10-09T00:02:47.246Z,4.87
2022-10-09T00:05:15.571Z,4.84
2022-10-09T00:07:43.602Z,4.80
2022-10-09T00:10:11.643Z,4.77
2022-10-09T00:12:39.686Z,4.70
2022-10-09T00:15:10.349Z,4.67
2022-10-09T00:17:38.375Z,4.64
2022-10-09T00:20:07.424Z,4.60
2022-10-09T00:22:35.501Z,4.59
2022-10-09T00:25:03.542Z,4.57
2022-10-09T00:27:31.605Z,4.55
2022-10-09T00:29:59.648Z,4.55
2022-10-09T00:32:29.049Z,4.51
2022-10-09T00:34:57.332Z,4.49
2022-10-09T00:37:25.349Z,4.51
2022-10-09T00:39:53.413Z,4.49
2022-10-09T00:42:21.522Z,4.48
2022-10-09T00:44:52.759Z,4.48
2022-10-09T00:47:24.233Z,4.46
2022-10-09T00:49:54.907Z,4.45
2022-10-09T00:52:23.281Z,4.38
2022-10-09T00:54:51.336Z,4.34
2022-10-09T00:57:19.377Z,4.28
2022-10-09T00:59:47.376Z,4.21
2022-10-09T01:02:15.757Z,4.21
2022-10-09T01:04:43.880Z,4.16
2022-10-09T01:07:26.027Z,4.16
2022-10-09T01:09:57.231Z,4.16
2022-10-09T01:12:31.052Z,4.13
2022-10-09T01:15:02.513Z,4.07
2022-10-09T01:17:34.442Z,4.04
2022-10-09T01:20:19.417Z,4.03
2022-10-09T01:22:55.448Z,3.99
2022-10-09T01:25:26.664Z,4.03
2022-10-09T01:27:56.080Z,4.01
2022-10-09T01:30:24.434Z,4.00
2022-10-09T01:32:53.125Z,3.97
2022-10-09T01:35:21.177Z,3.91
2022-10-09T01:37:49.264Z,3.86
2022-10-09T01:40:17.573Z,3.81
2022-10-09T01:42:47.323Z,3.78
2022-10-09T01:45:17.148Z,3.78
2022-10-09T01:47:45.203Z,3.77
2022-10-09T01:50:17.111Z,3.71
2022-10-09T01:52:47.535Z,3.72
2022-10-09T01:55:25.114Z,3.73
2022-10-09T01:57:54.196Z,3.73
2022-10-09T02:00:23.687Z,3.69
2022-10-09T02:02:52.361Z,3.69
2022-10-09T02:05:22.359Z,3.69
2022-10-09T02:07:50.464Z,3.66
2022-10-09T02:10:18.909Z,3.64
2022-10-09T02:12:48.378Z,3.58
2022-10-09T02:15:16.789Z,3.57
2022-10-09T02:17:47.715Z,3.58
2022-10-09T02:20:18.079Z,3.59
2022-10-09T02:22:46.358Z,3.53
2022-10-09T02:25:14.906Z,3.53
2022-10-09T02:27:42.961Z,3.52
2022-10-09T02:30:11.358Z,3.52
2022-10-09T02:32:39.969Z,3.50
2022-10-09T02:35:09.975Z,3.50
2022-10-09T02:37:38.286Z,3.42
2022-10-09T02:40:10.689Z,3.38
2022-10-09T02:42:39.077Z,3.39
2022-10-09T02:45:08.788Z,3.41
2022-10-09T02:47:36.812Z,3.41
2022-10-09T02:50:05.820Z,3.42
2022-10-09T02:52:35.216Z,3.43
2022-10-09T02:55:03.253Z,3.44
2022-10-09T02:57:32.478Z,3.43
2022-10-09T03:00:00.650Z,3.44
2022-10-09T03:02:28.837Z,3.43
2022-10-09T03:04:57.285Z,3.40
2022-10-09T03:07:25.396Z,3.34
2022-10-09T03:09:54.881Z,3.32
2022-10-09T03:12:22.923Z,3.30
2022-10-09T03:14:50.937Z,3.27
2022-10-09T03:17:19.308Z,3.29
2022-10-09T03:19:47.333Z,3.30
2022-10-09T03:22:15.389Z,3.27
2022-10-09T03:24:43.402Z,3.26
2022-10-09T03:27:13.135Z,3.23
2022-10-09T03:29:41.317Z,3.22
2022-10-09T03:32:09.737Z,3.21
2022-10-09T03:34:37.757Z,3.18
2022-10-09T03:37:05.789Z,3.15
2022-10-09T03:39:33.846Z,3.11
2022-10-09T03:42:01.853Z,3.09
2022-10-09T03:44:31.581Z,3.10
2022-10-09T03:46:59.706Z,3.08
2022-10-09T03:49:27.720Z,3.07
2022-10-09T03:51:55.764Z,3.05
2022-10-09T03:54:23.793Z,3.00
2022-10-09T03:56:51.940Z,2.98
2022-10-09T03:59:20.259Z,2.95
2022-10-09T04:01:49.694Z,2.95
2022-10-09T04:04:17.921Z,2.94
2022-10-09T04:06:45.976Z,2.95
2022-10-09T04:09:13.991Z,2.93
2022-10-09T04:11:42.033Z,2.91
2022-10-09T04:14:10.823Z,2.86
2022-10-09T04:16:38.946Z,2.85
2022-10-09T04:19:08.457Z,2.88
2022-10-09T04:21:36.554Z,2.86
2022-10-09T04:24:08.300Z,2.84
2022-10-09T04:26:36.721Z,2.81
2022-10-09T04:29:04.741Z,2.82
2022-10-09T04:31:32.830Z,2.81
2022-10-09T04:34:00.948Z,2.80
2022-10-09T04:36:30.356Z,2.76
2022-10-09T04:38:58.441Z,2.76
2022-10-09T04:41:26.873Z,2.73
2022-10-09T04:43:55.991Z,2.74
2022-10-09T04:46:24.189Z,2.74
2022-10-09T04:48:52.245Z,2.71
2022-10-09T04:51:20.343Z,2.72
2022-10-09T04:53:50.082Z,2.70
2022-10-09T04:56:18.976Z,2.67
2022-10-09T04:58:47.238Z,2.65
2022-10-09T05:01:16.806Z,2.61
2022-10-09T05:03:44.912Z,2.60
2022-10-09T05:06:13.526Z,2.59
2022-10-09T05:08:42.433Z,2.59
2022-10-09T05:11:12.802Z,2.58
2022-10-09T05:13:41.751Z,2.56
2022-10-09T05:16:10.544Z,2.55
2022-10-09T05:18:43.126Z,2.53
2022-10-09T05:21:11.527Z,2.51
2022-10-09T05:23:40.014Z,2.52
2022-10-09T05:26:08.672Z,2.53
2022-10-09T05:28:38.154Z,2.50
2022-10-09T05:31:06.423Z,2.50
2022-10-09T05:33:34.795Z,2.51
2022-10-09T05:36:03.873Z,2.54
2022-10-09T05:38:32.967Z,2.53
2022-10-09T05:41:02.017Z,2.53
2022-10-09T05:43:30.960Z,2.54
2022-10-09T05:46:08.077Z,2.55
2022-10-09T05:48:36.538Z,2.57
2022-10-09T05:51:09.282Z,2.60
2022-10-09T05:53:37.345Z,2.61
2022-10-09T05:56:13.052Z,2.66
2022-10-09T05:58:41.161Z,2.73
2022-10-09T06:01:10.979Z,2.80
2022-10-09T06:03:39.150Z,2.87
2022-10-09T06:06:08.488Z,2.96
2022-10-09T06:08:37.054Z,3.03
2022-10-09T06:11:12.908Z,3.12
2022-10-09T06:13:40.980Z,3.22
2022-10-09T06:16:11.757Z,3.28
2022-10-09T06:18:39.875Z,3.36
2022-10-09T06:21:07.913Z,3.47
2022-10-09T06:23:36.137Z,3.53
2022-10-09T06:26:05.495Z,3.57
2022-10-09T06:28:34.429Z,3.70
2022-10-09T06:31:03.770Z,3.77
2022-10-09T06:33:34.023Z,3.81
2022-10-09T06:36:09.743Z,3.90
2022-10-09T06:38:38.557Z,4.01
2022-10-09T06:41:07.229Z,4.12
2022-10-09T06:43:35.714Z,4.24
2022-10-09T06:46:04.205Z,4.39
2022-10-09T06:48:34.480Z,4.48
2022-10-09T06:51:03.134Z,4.60
2022-10-09T06:53:31.238Z,4.72
2022-10-09T06:55:59.519Z,4.84
2022-10-09T06:58:27.607Z,4.97
2022-10-09T07:01:04.812Z,5.11
2022-10-09T07:03:34.401Z,5.23
2022-10-09T07:06:09.807Z,5.35
2022-10-09T07:08:37.949Z,5.48
2022-10-09T07:11:10.552Z,5.63
2022-10-09T07:13:38.781Z,5.75
2022-10-09T07:16:07.403Z,5.87
2022-10-09T07:18:37.005Z,6.01
2022-10-09T07:21:05.354Z,6.12
2022-10-09T07:23:33.835Z,6.25
2022-10-09T07:26:02.165Z,6.35
2022-10-09T07:28:30.817Z,6.50
2022-10-09T07:30:59.031Z,6.66
2022-10-09T07:33:27.150Z,6.80
2022-10-09T07:35:56.853Z,6.95
2022-10-09T07:38:25.530Z,7.02
2022-10-09T07:40:53.576Z,7.12
2022-10-09T07:43:22.342Z,7.22
2022-10-09T07:45:50.461Z,7.29
2022-10-09T07:48:18.527Z,7.38
2022-10-09T07:50:46.892Z,7.48
2022-10-09T07:53:16.398Z,7.63
2022-10-09T07:55:45.951Z,7.70
2022-10-09T07:58:14.147Z,7.76
2022-10-09T08:00:42.246Z,7.89
2022-10-09T08:03:10.415Z,8.00
2022-10-09T08:05:38.795Z,8.12
2022-10-09T08:08:06.899Z,8.14
2022-10-09T08:10:36.326Z,8.26
2022-10-09T08:13:04.555Z,8.35
2022-10-09T08:15:32.653Z,8.48
2022-10-09T08:18:01.038Z,8.62
2022-10-09T08:20:29.490Z,8.76
2022-10-09T08:22:57.613Z,8.76
2022-10-09T08:25:25.727Z,8.86
2022-10-09T08:27:55.233Z,8.99
2022-10-09T08:30:23.371Z,9.18
2022-10-09T08:32:52.092Z,9.40
2022-10-09T08:35:20.214Z,9.54
2022-10-09T08:37:48.224Z,9.77
2022-10-09T08:40:17.193Z,9.93
2022-10-09T08:42:49.263Z,10.11
2022-10-09T08:45:19.372Z,10.22
2022-10-09T08:47:48.474Z,10.36
2022-10-09T08:50:18.468Z,10.55
2022-10-09T08:52:50.178Z,10.80
2022-10-09T08:55:21.033Z,10.89
2022-10-09T08:57:51.441Z,11.00
2022-10-09T09:00:22.671Z,11.26
2022-10-09T09:03:25.010Z,11.42
2022-10-09T09:05:55.683Z,11.55
2022-10-09T09:08:27.464Z,11.70
2022-10-09T09:10:58.833Z,11.91
2022-10-09T09:13:47.157Z,12.22
2022-10-09T09:16:20.671Z,12.53
2022-10-09T09:18:52.468Z,12.67
2022-10-09T09:21:27.477Z,12.81
2022-10-09T09:23:55.533Z,12.90
2022-10-09T09:26:23.887Z,13.13
2022-10-09T09:28:53.613Z,13.28
2022-10-09T09:31:25.017Z,13.45
2022-10-09T09:33:56.448Z,13.78
2022-10-09T09:36:25.649Z,13.77
2022-10-09T09:39:35.429Z,14.02
2022-10-09T09:41:42.869Z,14.11
2022-10-09T09:44:11.397Z,14.45
2022-10-09T09:46:41.207Z,14.82
2022-10-09T09:49:19.217Z,14.84
2022-10-09T09:51:47.413Z,15.07
2022-10-09T09:54:17.794Z,15.38
2022-10-09T09:59:34.989Z,15.75
2022-10-09T10:02:13.559Z,15.84
2022-10-09T10:04:50.594Z,16.04
2022-10-09T10:07:34.272Z,16.07
2022-10-09T10:10:08.760Z,16.24
2022-10-09T10:12:46.437Z,16.33
2022-10-09T10:15:25.454Z,16.45
2022-10-09T10:18:10.032Z,16.58
2022-10-09T10:20:44.457Z,16.73
2022-10-09T10:23:23.663Z,16.77
2022-10-09T10:29:46.024Z,17.29
2022-10-09T10:32:16.184Z,17.40
2022-10-09T10:34:49.614Z,17.09
2022-10-09T10:37:35.831Z,16.81
2022-10-09T10:40:17.316Z,17.00
2022-10-09T10:42:48.256Z,17.09
2022-10-09T10:45:29.528Z,17.20
2022-10-09T10:48:00.003Z,17.22
2022-10-09T10:50:37.497Z,17.19
2022-10-09T10:53:14.127Z,17.43
2022-10-09T10:55:48.726Z,17.72
2022-10-09T10:58:25.796Z,17.63
2022-10-09T11:01:03.457Z,17.87
2022-10-09T11:03:38.118Z,17.71
2022-10-09T11:06:12.549Z,17.60
2022-10-09T11:08:52.968Z,17.46
2022-10-09T11:11:42.757Z,17.75
2022-10-09T11:14:25.890Z,17.72
2022-10-09T11:17:03.595Z,17.48
2022-10-09T11:19:48.037Z,17.63
2022-10-09T11:22:27.613Z,17.79
2022-10-09T11:25:04.540Z,17.99
2022-10-09T11:34:38.622Z,17.64
2022-10-09T11:37:08.751Z,17.80
2022-10-09T11:39:38.775Z,17.90
2022-10-09T11:42:07.660Z,17.98
2022-10-09T11:44:42.604Z,17.96
2022-10-09T11:47:15.566Z,17.75
2022-10-09T11:50:14.419Z,17.54
2022-10-09T11:52:45.247Z,17.51
2022-10-09T11:55:25.679Z,17.31
2022-10-09T11:57:54.594Z,16.99
2022-10-09T12:00:30.825Z,16.59
2022-10-09T12:03:09.360Z,16.56
2022-10-09T12:05:41.315Z,16.46
2022-10-09T12:08:34.709Z,16.09
2022-10-09T12:11:16.531Z,15.84
2022-10-09T12:14:07.250Z,15.74
2022-10-09T12:17:35.490Z,15.66
2022-10-09T12:20:19.932Z,15.44
2022-10-09T12:23:25.670Z,15.26
2022-10-09T12:26:24.947Z,15.35
2022-10-09T12:29:43.219Z,15.39
2022-10-09T12:32:31.878Z,15.42
2022-10-09T12:35:05.325Z,15.49
2022-10-09T12:37:57.929Z,15.57
2022-10-09T12:40:39.074Z,15.37
2022-10-09T12:43:14.282Z,15.19
2022-10-09T12:45:46.930Z,15.23
2022-10-09T12:48:29.258Z,15.22
2022-10-09T12:50:58.883Z,15.14
2022-10-09T12:53:27.737Z,15.13
2022-10-09T12:56:01.360Z,15.06
2022-10-09T12:58:32.900Z,15.12
2022-10-09T13:01:03.350Z,15.05
2022-10-09T13:03:35.783Z,14.94
2022-10-09T13:06:03.949Z,14.75
2022-10-09T13:08:34.870Z,14.65
2022-10-09T13:11:10.484Z,14.68
2022-10-09T13:13:40.414Z,14.56
2022-10-09T13:16:09.582Z,14.53
2022-10-09T13:18:37.733Z,14.52
2022-10-09T13:21:07.339Z,14.55
2022-10-09T13:23:36.236Z,14.48
2022-10-09T13:26:06.119Z,14.52
2022-10-09T13:28:34.508Z,14.48
2022-10-09T13:31:10.105Z,14.45
2022-10-09T13:33:38.288Z,14.41
2022-10-09T13:36:06.864Z,14.37
2022-10-09T13:41:22.286Z,14.37
2022-10-09T13:43:51.117Z,14.38
2022-10-09T13:46:20.779Z,14.35
2022-10-09T13:48:48.988Z,14.37
2022-10-09T13:51:17.179Z,14.36
2022-10-09T13:53:45.540Z,14.36
2022-10-09T13:56:13.629Z,14.36
2022-10-09T13:58:41.722Z,14.37
2022-10-09T14:01:10.090Z,14.36
2022-10-09T14:03:40.477Z,14.34
2022-10-09T14:06:08.928Z,14.36
2022-10-09T14:08:38.416Z,14.34
2022-10-09T14:11:10.432Z,14.32
2022-10-09T14:13:39.907Z,14.31
2022-10-09T14:16:08.579Z,14.32
2022-10-09T14:18:43.252Z,14.31
2022-10-09T14:21:22.305Z,14.29
2022-10-09T14:23:59.747Z,14.25
2022-10-09T14:26:30.416Z,14.17
2022-10-09T14:29:00.091Z,14.16
2022-10-09T14:31:28.284Z,14.09
2022-10-09T14:33:57.484Z,13.96
2022-10-09T14:36:27.345Z,13.88
2022-10-09T14:38:55.436Z,13.84
2022-10-09T14:41:23.569Z,13.83
2022-10-09T14:43:56.794Z,13.67
2022-10-09T14:46:25.093Z,13.58
2022-10-09T14:48:55.037Z,13.53
2022-10-09T14:51:23.967Z,13.46
2022-10-09T14:53:56.553Z,13.35
2022-10-09T14:56:24.782Z,13.29
2022-10-09T14:58:52.887Z,13.22
2022-10-09T15:01:22.477Z,13.08
2022-10-09T15:03:50.650Z,12.98
2022-10-09T15:06:23.798Z,12.86
2022-10-09T15:08:55.485Z,12.77
2022-10-09T15:11:24.004Z,12.69
2022-10-09T15:13:59.102Z,12.62
2022-10-09T15:16:27.199Z,12.55
2022-10-09T15:18:55.896Z,12.47
2022-10-09T15:21:25.192Z,12.41
2022-10-09T15:23:55.906Z,12.30
2022-10-09T15:26:24.322Z,12.20
2022-10-09T15:28:52.472Z,12.16
2022-10-09T15:31:23.407Z,12.15
2022-10-09T15:33:51.918Z,12.11
2022-10-09T15:36:20.163Z,12.04
2022-10-09T15:38:48.353Z,11.94
2022-10-09T15:41:25.847Z,11.81
2022-10-09T15:43:55.392Z,11.66
2022-10-09T15:46:23.584Z,11.53
2022-10-09T15:48:51.756Z,11.43
2022-10-09T15:51:20.002Z,11.35
2022-10-09T15:53:50.028Z,11.25
2022-10-09T15:56:20.615Z,11.15
2022-10-09T15:58:50.301Z,11.08
2022-10-09T16:01:18.707Z,11.00
2022-10-09T16:11:01.600Z,10.66
2022-10-09T16:13:29.719Z,10.55
2022-10-09T16:15:59.846Z,10.48
2022-10-09T16:18:28.180Z,10.42
2022-10-09T16:21:34.454Z,10.36
2022-10-09T16:24:50.468Z,10.31
2022-10-09T16:27:44.849Z,10.27
2022-10-09T16:30:14.307Z,10.19
2022-10-09T16:32:43.911Z,10.14
2022-10-09T16:35:12.030Z,10.04
2022-10-09T16:37:40.517Z,9.96
2022-10-09T16:40:09.188Z,9.90
2022-10-09T16:42:37.250Z,9.78
2022-10-09T16:45:05.925Z,9.64
2022-10-09T16:47:34.113Z,9.68
2022-10-09T16:50:04.017Z,9.69
2022-10-09T16:52:32.090Z,9.72
2022-10-09T16:55:00.725Z,9.68
2022-10-09T16:57:28.909Z,9.64
2022-10-09T16:59:57.121Z,9.63
2022-10-09T17:02:25.765Z,9.54
2022-10-09T17:04:54.263Z,9.47
2022-10-09T17:07:24.666Z,9.43
2022-10-09T17:09:53.046Z,9.36
2022-10-09T17:12:27.249Z,9.32
2022-10-09T17:15:00.665Z,9.28
2022-10-09T17:17:29.103Z,9.21
2022-10-09T17:19:57.739Z,9.09
2022-10-09T17:22:27.333Z,9.02
2022-10-09T17:24:56.210Z,9.06
2022-10-09T17:27:24.364Z,9.07
2022-10-09T17:29:52.725Z,9.01
2022-10-09T17:32:21.183Z,8.99
2022-10-09T17:34:49.435Z,8.89
2022-10-09T17:37:17.693Z,8.77
2022-10-09T17:39:51.859Z,8.66
2022-10-09T17:42:20.622Z,8.55
2022-10-09T17:44:49.056Z,8.51
2022-10-09T17:47:17.166Z,8.42
2022-10-09T17:49:45.366Z,8.41
2022-10-09T17:52:13.491Z,8.34
2022-10-09T17:54:41.619Z,8.28
2022-10-09T17:57:12.564Z,8.23
2022-10-09T17:59:40.793Z,8.17
2022-10-09T18:02:11.440Z,8.13
2022-10-09T18:04:39.590Z,8.10
2022-10-09T18:07:07.871Z,8.03
2022-10-09T18:09:36.111Z,7.90
2022-10-09T18:12:04.365Z,7.79
2022-10-09T18:14:34.871Z,7.67
2022-10-09T18:17:02.929Z,7.60
2022-10-09T18:19:31.064Z,7.55
2022-10-09T18:21:59.195Z,7.47
2022-10-09T18:24:27.366Z,7.46
2022-10-09T18:26:55.793Z,7.44
2022-10-09T18:29:23.859Z,7.42
2022-10-09T18:31:55.747Z,7.40
2022-10-09T18:34:23.814Z,7.31
2022-10-09T18:36:52.360Z,7.34
2022-10-09T18:39:21.611Z,7.32
2022-10-09T18:41:49.633Z,7.33
2022-10-09T18:44:18.594Z,7.26
2022-10-09T18:46:47.790Z,7.21
2022-10-09T18:49:18.423Z,7.31
2022-10-09T18:51:46.796Z,7.35
2022-10-09T18:54:18.104Z,7.27
2022-10-09T18:56:46.328Z,7.24
2022-10-09T18:59:15.479Z,7.32
2022-10-09T19:01:43.601Z,7.19
2022-10-09T19:04:11.685Z,7.15
2022-10-09T19:06:41.458Z,7.13
2022-10-09T19:09:09.549Z,7.06
2022-10-09T19:11:37.708Z,7.04
2022-10-09T19:14:05.811Z,7.05
2022-10-09T19:16:34.493Z,7.09
2022-10-09T19:19:02.922Z,7.16
2022-10-09T19:21:33.725Z,7.31
2022-10-09T19:24:06.183Z,7.42
2022-10-09T19:26:35.359Z,7.50
2022-10-09T19:29:03.561Z,7.52
2022-10-09T19:31:32.382Z,7.52
2022-10-09T19:34:00.858Z,7.53
2022-10-09T19:36:33.128Z,7.51
2022-10-09T19:39:02.813Z,7.42
2022-10-09T19:41:30.910Z,7.33
2022-10-09T19:43:59.664Z,7.31
2022-10-09T19:46:28.140Z,7.31
2022-10-09T19:48:56.230Z,7.18
2022-10-09T19:51:25.261Z,7.19
2022-10-09T19:53:54.816Z,7.17
2022-10-09T19:56:26.233Z,7.16
2022-10-09T19:58:54.912Z,7.10
2022-10-09T20:01:24.731Z,7.02
2022-10-09T20:03:55.055Z,6.90
2022-10-09T20:06:23.148Z,6.87
2022-10-09T20:08:51.448Z,6.87
2022-10-09T20:11:20.701Z,6.84
2022-10-09T20:13:55.559Z,6.89
2022-10-09T20:16:24.472Z,6.95
2022-10-09T20:18:52.525Z,6.94
2022-10-09T20:21:20.613Z,6.86
2022-10-09T20:23:49.304Z,6.87
2022-10-09T20:26:18.378Z,6.83
2022-10-09T20:28:46.603Z,6.86
2022-10-09T20:31:18.198Z,6.84
2022-10-09T20:33:46.689Z,6.86
2022-10-09T20:36:19.616Z,6.87
2022-10-09T20:38:47.784Z,6.83
2022-10-09T20:41:16.141Z,6.75
2022-10-09T20:43:44.217Z,7.10
2022-10-09T20:46:13.534Z,7.45
2022-10-09T20:48:43.381Z,7.59
2022-10-09T20:51:11.499Z,7.65
2022-10-09T20:53:39.860Z,7.70
2022-10-09T20:56:09.749Z,7.70
2022-10-09T20:58:37.977Z,7.68
2022-10-09T21:01:07.103Z,7.84
2022-10-09T21:03:35.231Z,7.99
2022-10-09T21:06:05.564Z,8.08
2022-10-09T21:08:33.948Z,8.24
2022-10-09T21:11:02.045Z,8.47
2022-10-09T21:13:30.190Z,8.62
2022-10-09T21:15:58.179Z,8.66
2022-10-09T21:18:26.243Z,8.69
2022-10-09T21:20:54.628Z,8.74
2022-10-09T21:23:24.045Z,8.64
2022-10-09T21:25:52.989Z,8.67
2022-10-09T21:28:21.779Z,8.68
2022-10-09T21:30:49.872Z,8.64
2022-10-09T21:33:18.301Z,8.70
2022-10-09T21:35:47.163Z,8.70
2022-10-09T21:38:17.068Z,8.60
2022-10-09T21:40:46.570Z,8.53
2022-10-09T21:43:14.641Z,8.42
2022-10-09T21:45:42.795Z,8.36
2022-10-09T21:48:11.593Z,8.27
2022-10-09T21:50:39.701Z,8.26
2022-10-09T21:53:07.747Z,8.22
2022-10-09T21:55:35.743Z,8.19
2022-10-09T21:58:05.245Z,8.29
2022-10-09T22:00:33.592Z,8.48
2022-10-09T22:03:01.664Z,8.49
2022-10-09T22:05:29.696Z,8.42
2022-10-09T22:07:57.707Z,8.32
2022-10-09T22:10:25.788Z,8.41
2022-10-09T22:12:53.878Z,8.37
2022-10-09T22:15:23.643Z,8.17
2022-10-09T22:17:51.686Z,8.09
2022-10-09T22:20:19.930Z,8.05
2022-10-09T22:22:48.328Z,8.04
2022-10-09T22:25:16.702Z,8.13
2022-10-09T22:27:44.801Z,8.21
2022-10-09T22:30:13.947Z,8.33
2022-10-09T22:32:43.435Z,8.37
2022-10-09T22:35:11.509Z,8.40
2022-10-09T22:37:39.546Z,8.48
2022-10-09T22:40:08.356Z,8.40
2022-10-09T22:42:36.764Z,8.36
2022-10-09T22:45:05.122Z,8.31
2022-10-09T22:47:33.124Z,8.44
2022-10-09T22:50:02.605Z,8.77
2022-10-09T22:52:30.712Z,8.81
2022-10-09T22:55:00.604Z,8.74
2022-10-09T22:57:28.980Z,8.68
2022-10-09T22:59:56.951Z,8.75
2022-10-09T23:02:24.980Z,8.86
2022-10-09T23:04:53.069Z,8.87
2022-10-09T23:07:22.474Z,8.86
2022-10-09T23:09:50.872Z,9.00
2022-10-09T23:12:18.975Z,9.02
2022-10-09T23:14:47.069Z,9.03
2022-10-09T23:17:15.173Z,9.04
2022-10-09T23:19:43.222Z,9.08
2022-10-09T23:22:11.265Z,9.12
2022-10-09T23:24:41.021Z,9.07
2022-10-09T23:27:09.044Z,9.14
2022-10-09T23:29:37.044Z,9.13
2022-10-09T23:32:05.084Z,9.32
2022-10-09T23:34:33.081Z,9.49
2022-10-09T23:37:01.375Z,9.57
2022-10-09T23:39:29.539Z,9.59
2022-10-09T23:41:58.918Z,9.73
2022-10-09T23:44:27.010Z,9.97
2022-10-09T23:46:55.004Z,9.97
2022-10-09T23:49:23.075Z,10.04
2022-10-09T23:51:51.376Z,10.13
2022-10-09T23:54:19.957Z,10.15
2022-10-09T23:56:48.028Z,10.09
2022-10-09T23:59:17.430Z,10.10
